createdAt,value
2018-07-12T00:05:20.422Z,65
2018-07-12T00:10:50.280Z,65
2018-07-12T00:16:20.196Z,65
2018-07-12T00:21:50.994Z,65
2018-07-12T00:27:22.095Z,65
2018-07-12T00:32:57.625Z,65
2018-07-12T00:38:22.712Z,66
2018-07-12T00:43:58.275Z,66
2018-07-12T00:49:29.063Z,66
2018-07-12T00:54:59.185Z,66
2018-07-12T01:00:25.452Z,66
2018-07-12T01:05:55.741Z,67
2018-07-12T01:11:26.272Z,67
2018-07-12T01:16:56.316Z,67
2018-07-12T01:22:25.910Z,67
2018-07-12T01:27:56.879Z,67
2018-07-12T01:33:32.489Z,67
2018-07-12T01:38:57.194Z,67
2018-07-12T01:44:28.008Z,67
2018-07-12T01:50:02.798Z,68
2018-07-12T01:55:27.516Z,68
2018-07-12T02:00:57.283Z,68
2018-07-12T02:06:27.992Z,68
2018-07-12T02:11:58.832Z,68
2018-07-12T02:17:28.563Z,68
2018-07-12T02:22:58.607Z,68
2018-07-12T02:28:28.008Z,69
2018-07-12T02:33:57.782Z,69
2018-07-12T02:39:32.701Z,69
2018-07-12T02:44:57.132Z,69
2018-07-12T02:50:28.120Z,69
2018-07-12T02:56:03.551Z,69
2018-07-12T03:01:28.310Z,70
2018-07-12T03:06:58.255Z,70
2018-07-12T03:12:27.921Z,70
2018-07-12T03:17:57.716Z,70
2018-07-12T03:23:28.105Z,70
2018-07-12T03:28:59.120Z,70
2018-07-12T03:34:29.718Z,70
2018-07-12T03:40:00.276Z,70
2018-07-12T03:45:31.279Z,70
2018-07-12T03:51:01.644Z,70
2018-07-12T03:56:31.403Z,70
2018-07-12T04:02:02.448Z,69
2018-07-12T04:07:32.749Z,69
2018-07-12T04:13:02.482Z,69
2018-07-12T04:18:38.487Z,69
2018-07-12T04:24:09.314Z,69
2018-07-12T04:29:39.724Z,69
2018-07-12T04:35:05.490Z,69
2018-07-12T04:40:36.412Z,69
2018-07-12T04:40:40.211Z,69
2018-07-12T04:46:05.267Z,70
2018-07-12T04:51:35.974Z,70
2018-07-12T04:57:05.536Z,70
2018-07-12T05:02:35.273Z,71
2018-07-12T05:08:10.093Z,71
2018-07-12T05:13:34.758Z,71
2018-07-12T05:19:05.550Z,71
2018-07-12T05:24:35.630Z,71
2018-07-12T05:30:06.043Z,71
2018-07-12T05:35:36.891Z,71
2018-07-12T05:41:07.629Z,72
2018-07-12T05:46:43.669Z,72
2018-07-12T05:52:14.449Z,71
2018-07-12T05:57:38.970Z,71
2018-07-12T06:03:09.761Z,70
2018-07-12T06:08:40.884Z,70
2018-07-12T06:14:11.777Z,70
2018-07-12T06:19:42.412Z,70
2018-07-12T06:25:13.436Z,70
2018-07-12T06:30:48.290Z,69
2018-07-12T06:36:13.477Z,69
2018-07-12T06:41:43.196Z,69
2018-07-12T06:47:19.111Z,68
2018-07-12T06:52:44.165Z,68
2018-07-12T06:58:20.286Z,68
2018-07-12T07:03:46.573Z,68
2018-07-12T07:09:16.336Z,67
2018-07-12T07:14:51.831Z,67
2018-07-12T07:20:17.881Z,67
2018-07-12T07:25:47.564Z,66
2018-07-12T07:31:17.889Z,65
2018-07-12T07:36:53.815Z,65
2018-07-12T07:42:19.017Z,65
2018-07-12T07:47:55.301Z,65
2018-07-12T07:53:26.690Z,64
2018-07-12T07:58:51.754Z,64
2018-07-12T08:04:22.792Z,64
2018-07-12T08:15:30.336Z,64
2018-07-12T08:20:55.934Z,63
2018-07-12T08:26:26.053Z,63
2018-07-12T08:31:57.090Z,62
2018-07-12T08:37:33.571Z,62
2018-07-12T08:42:59.878Z,62
2018-07-12T08:48:35.915Z,61
2018-07-12T08:54:01.669Z,61
2018-07-12T08:59:31.930Z,60
2018-07-12T09:10:38.426Z,59
2018-07-12T09:16:09.050Z,58
2018-07-12T09:21:34.565Z,57
2018-07-12T09:27:04.957Z,57
2018-07-12T09:32:41.174Z,56
2018-07-12T09:38:06.696Z,55
2018-07-12T09:43:37.509Z,54
2018-07-12T09:49:13.250Z,53
2018-07-12T09:54:39.603Z,53
2018-07-12T10:00:14.904Z,53
2018-07-12T10:05:40.732Z,53
2018-07-12T10:11:11.952Z,53
2018-07-12T10:16:42.714Z,52
2018-07-12T10:22:13.209Z,52
2018-07-12T10:27:43.513Z,52
2018-07-12T10:33:19.265Z,51
2018-07-12T10:38:45.777Z,50
2018-07-12T10:44:22.377Z,49
2018-07-12T10:49:47.812Z,48
2018-07-12T10:55:23.449Z,48
2018-07-12T11:00:49.479Z,47
2018-07-12T11:06:25.071Z,47
2018-07-12T11:11:50.492Z,47
2018-07-12T11:17:21.206Z,48
2018-07-12T11:22:53.212Z,48
2018-07-12T11:28:23.518Z,47
2018-07-12T11:33:55.184Z,47
2018-07-12T11:39:30.930Z,46
2018-07-12T11:45:01.343Z,46
2018-07-12T11:50:32.132Z,47
2018-07-12T11:55:57.803Z,47
2018-07-12T12:01:34.352Z,47
2018-07-12T12:07:00.728Z,47
2018-07-12T12:12:32.278Z,49
2018-07-12T12:18:03.694Z,50
2018-07-12T12:23:40.135Z,50
2018-07-12T12:29:11.442Z,50
2018-07-12T12:34:37.768Z,51
2018-07-12T12:40:08.125Z,51
2018-07-12T12:45:45.697Z,52
2018-07-12T12:51:09.729Z,53
2018-07-12T12:56:44.896Z,53
2018-07-12T13:02:11.395Z,54
2018-07-12T13:07:42.381Z,54
2018-07-12T13:13:17.983Z,54
2018-07-12T13:18:42.854Z,55
2018-07-12T13:24:14.123Z,56
2018-07-12T13:29:44.386Z,56
2018-07-12T13:35:15.426Z,57
2018-07-12T13:40:45.942Z,57
2018-07-12T13:46:21.500Z,57
2018-07-12T13:51:47.572Z,57
2018-07-12T13:57:18.959Z,56
2018-07-12T14:02:55.315Z,56
2018-07-12T14:08:21.691Z,56
2018-07-12T14:13:53.076Z,56
2018-07-12T14:19:24.783Z,57
2018-07-12T14:24:54.833Z,57
2018-07-12T14:30:25.321Z,56
2018-07-12T14:35:55.652Z,55
2018-07-12T14:41:27.042Z,54
2018-07-12T14:46:58.532Z,54
2018-07-12T14:52:34.009Z,54
2018-07-12T14:57:59.726Z,53
2018-07-12T15:03:30.062Z,53
2018-07-12T15:09:00.629Z,52
2018-07-12T15:14:32.158Z,53
2018-07-12T15:20:03.726Z,52
2018-07-12T15:25:35.128Z,52
2018-07-12T15:31:11.052Z,52
2018-07-12T15:36:42.152Z,52
2018-07-12T15:42:07.633Z,52
2018-07-12T15:47:38.422Z,51
2018-07-12T15:53:08.978Z,51
2018-07-12T15:58:39.085Z,51
2018-07-12T16:04:10.834Z,51
2018-07-12T16:09:41.134Z,51
2018-07-12T16:15:16.688Z,52
2018-07-12T16:20:43.035Z,52
2018-07-12T16:26:14.426Z,52
2018-07-12T16:31:45.537Z,51
2018-07-12T16:37:20.974Z,51
2018-07-12T16:42:51.334Z,52
2018-07-12T16:48:21.683Z,52
2018-07-12T16:53:53.311Z,52
2018-07-12T16:59:18.570Z,52
2018-07-12T17:04:54.055Z,52
2018-07-12T17:10:20.061Z,52
2018-07-12T17:15:51.734Z,53
2018-07-12T17:21:21.554Z,53
2018-07-12T17:21:22.261Z,53
2018-07-12T17:26:52.133Z,53
2018-07-12T17:32:27.795Z,53
2018-07-12T17:37:53.489Z,54
2018-07-12T17:43:24.684Z,54
2018-07-12T17:48:54.987Z,55
2018-07-12T17:54:25.369Z,55
2018-07-12T18:00:01.606Z,56
2018-07-12T18:05:26.519Z,57
2018-07-12T18:10:56.890Z,57
2018-07-12T18:16:31.751Z,57
2018-07-12T18:22:03.044Z,58
2018-07-12T18:27:32.873Z,58
2018-07-12T18:32:57.811Z,58
2018-07-12T18:38:27.845Z,59
2018-07-12T18:43:58.156Z,59
2018-07-12T18:49:27.904Z,60
2018-07-12T18:55:04.274Z,60
2018-07-12T19:00:29.107Z,60
2018-07-12T19:06:05.027Z,60
2018-07-12T19:11:29.964Z,60
2018-07-12T19:17:00.885Z,61
2018-07-12T19:22:31.859Z,61
2018-07-12T19:28:02.253Z,62
2018-07-12T19:33:38.270Z,62
2018-07-12T19:39:03.880Z,62
2018-07-12T19:44:39.023Z,62
2018-07-12T19:50:04.770Z,62
2018-07-12T19:55:40.405Z,63
2018-07-12T20:01:06.257Z,63
2018-07-12T20:06:36.365Z,63
2018-07-12T20:12:06.960Z,64
2018-07-12T20:17:37.806Z,64
2018-07-12T20:23:12.663Z,64
2018-07-12T20:28:38.502Z,65
2018-07-12T20:34:08.372Z,65
2018-07-12T20:39:39.481Z,65
2018-07-12T20:45:09.110Z,65
2018-07-12T20:45:09.412Z,65
2018-07-12T20:50:38.639Z,65
2018-07-12T20:56:08.495Z,66
2018-07-12T21:01:39.379Z,66
2018-07-12T21:07:14.218Z,66
2018-07-12T21:12:39.900Z,66
2018-07-12T21:18:09.716Z,66
2018-07-12T21:23:39.181Z,66
2018-07-12T21:29:10.106Z,67
2018-07-12T21:34:39.605Z,67
2018-07-12T21:40:10.329Z,67
2018-07-12T21:45:41.691Z,67
2018-07-12T21:51:12.056Z,67
2018-07-12T22:02:11.528Z,67
2018-07-12T22:07:42.192Z,68
2018-07-12T22:07:42.510Z,68
2018-07-12T22:13:12.864Z,68
2018-07-12T22:18:47.389Z,68
2018-07-12T22:24:12.077Z,68
2018-07-12T22:29:47.778Z,68
2018-07-12T22:35:12.463Z,68
2018-07-12T22:40:42.187Z,69
2018-07-12T22:46:18.184Z,69
2018-07-12T22:51:47.651Z,69
2018-07-12T22:57:12.618Z,69
2018-07-12T23:02:42.247Z,69
2018-07-12T23:08:11.689Z,69
2018-07-12T23:13:41.631Z,70
2018-07-12T23:19:11.062Z,70
2018-07-12T23:24:40.785Z,70
2018-07-12T23:30:11.382Z,70
2018-07-12T23:35:42.060Z,70
2018-07-12T23:41:12.816Z,71
2018-07-12T23:46:43.728Z,71
2018-07-12T23:52:13.058Z,71
2018-07-12T23:57:42.920Z,71
